Trieste / Ronchi Dei Legionari LIPQ

Flugplatz Daten

Name: Trieste / Ronchi Dei Legionari

Ident: LIPQ

Lat: 45,82749939

Long: 13,47220039

Platzhöhe: 39 ft

IataCode: TRS

City: Trieste

Homepage: http://www.aeroporto.fvg.it/

Metar

2021/08/05 14:20
LIPQ 051420Z AUTO 20007KT 9999 NCD 26/17 Q1005

Taf

2021/08/05 12:21
TAF LIPQ 051100Z 0512/0612 10006KT 9999 SCT030 SCT070
BECMG 0512/0514 19010KT
BECMG 0515/0517 09005KT
TEMPO 0518/0524 TSRA
BECMG 0610/0612 19010KT
Gewünschte Webcam nicht vorhanden? Dann fügen Sie eine hinzu. Sie wird dann so schnell wie möglich freigeschaltet
Url: Title: